createdAt,value
2019-01-27T00:00:50.147Z,968.436
2019-01-27T00:02:50.265Z,968.406
2019-01-27T00:04:49.697Z,968.355
2019-01-27T00:06:50.081Z,968.334
2019-01-27T00:08:50.171Z,968.303
2019-01-27T00:10:50.225Z,968.290
2019-01-27T00:12:50.247Z,968.284
2019-01-27T00:14:50.304Z,968.251
2019-01-27T00:16:50.517Z,968.240
2019-01-27T00:18:49.642Z,968.213
2019-01-27T00:20:49.775Z,968.160
2019-01-27T00:22:49.786Z,968.129
2019-01-27T00:24:49.926Z,968.091
2019-01-27T00:26:50.199Z,968.067
2019-01-27T00:28:50.252Z,967.997
2019-01-27T00:30:50.276Z,967.966
2019-01-27T00:32:50.278Z,967.936
2019-01-27T00:34:50.595Z,967.912
2019-01-27T00:36:50.004Z,967.912
2019-01-27T00:38:50.058Z,967.855
2019-01-27T00:40:50.149Z,967.843
2019-01-27T00:42:50.174Z,967.782
2019-01-27T00:44:50.164Z,967.735
2019-01-27T00:46:50.432Z,967.709
2019-01-27T00:48:50.477Z,967.684
2019-01-27T00:50:50.551Z,967.663
2019-01-27T00:52:49.600Z,967.605
2019-01-27T00:54:49.642Z,967.575
2019-01-27T00:56:49.979Z,967.566
2019-01-27T00:58:50.116Z,967.494
2019-01-27T01:00:50.209Z,967.464
2019-01-27T01:02:50.278Z,967.412
2019-01-27T01:04:49.809Z,967.410
2019-01-27T01:06:50.093Z,967.389
2019-01-27T01:08:50.146Z,967.339
2019-01-27T01:10:50.190Z,967.310
2019-01-27T01:12:50.526Z,967.244
2019-01-27T01:14:49.703Z,967.221
2019-01-27T01:16:50.073Z,967.175
2019-01-27T01:18:50.056Z,967.144
2019-01-27T01:20:50.155Z,967.096
2019-01-27T01:22:50.255Z,967.029
2019-01-27T01:24:50.329Z,967.002
2019-01-27T01:26:49.760Z,966.974
2019-01-27T01:28:50.049Z,966.947
2019-01-27T01:30:50.073Z,966.939
2019-01-27T01:32:50.097Z,966.867
2019-01-27T01:34:50.535Z,966.782
2019-01-27T01:36:49.764Z,966.696
2019-01-27T01:38:49.872Z,966.701
2019-01-27T01:40:49.956Z,966.644
2019-01-27T01:42:50.057Z,966.598
2019-01-27T01:44:50.177Z,966.544
2019-01-27T01:46:50.542Z,966.497
2019-01-27T01:48:50.574Z,966.452
2019-01-27T01:50:49.696Z,966.389
2019-01-27T01:52:49.842Z,966.386
2019-01-27T01:54:49.894Z,966.363
2019-01-27T01:56:50.076Z,966.338
2019-01-27T01:58:50.128Z,966.248
2019-01-27T02:00:50.222Z,966.144
2019-01-27T02:02:50.341Z,966.093
2019-01-27T02:04:49.746Z,966.044
2019-01-27T02:06:50.108Z,965.994
2019-01-27T02:08:50.128Z,965.915
2019-01-27T02:10:50.205Z,965.876
2019-01-27T02:12:50.388Z,965.857
2019-01-27T02:14:50.540Z,965.799
2019-01-27T02:16:49.683Z,965.767
2019-01-27T02:18:49.859Z,965.657
2019-01-27T02:20:49.935Z,965.592
2019-01-27T02:22:49.977Z,965.535
2019-01-27T02:24:49.992Z,965.456
2019-01-27T02:26:50.228Z,965.391
2019-01-27T02:28:50.305Z,965.318
2019-01-27T02:30:50.337Z,965.263
2019-01-27T02:32:50.354Z,965.138
2019-01-27T02:34:49.630Z,965.126
2019-01-27T02:36:49.955Z,965.124
2019-01-27T02:38:50.069Z,965.073
2019-01-27T02:40:50.134Z,965.042
2019-01-27T02:42:50.124Z,964.996
2019-01-27T02:44:50.104Z,964.937
2019-01-27T02:46:50.295Z,964.902
2019-01-27T02:48:50.336Z,964.821
2019-01-27T02:50:50.299Z,964.770
2019-01-27T02:52:50.302Z,964.725
2019-01-27T02:54:50.267Z,964.713
2019-01-27T02:56:50.449Z,964.713
2019-01-27T02:58:50.424Z,964.707
2019-01-27T03:00:50.453Z,964.698
2019-01-27T03:02:50.567Z,964.643
2019-01-27T03:04:50.088Z,964.622
2019-01-27T03:06:50.336Z,964.567
2019-01-27T03:08:50.429Z,964.529
2019-01-27T03:10:50.463Z,964.473
2019-01-27T03:12:50.557Z,964.429
2019-01-27T03:14:49.632Z,964.394
2019-01-27T03:16:49.933Z,964.379
2019-01-27T03:18:50.020Z,964.365
2019-01-27T03:20:50.119Z,964.335
2019-01-27T03:22:50.193Z,964.325
2019-01-27T03:24:50.227Z,964.288
2019-01-27T03:26:50.499Z,964.270
2019-01-27T03:28:49.723Z,964.214
2019-01-27T03:30:49.930Z,964.192
2019-01-27T03:32:50.095Z,964.210
2019-01-27T03:34:50.395Z,964.214
2019-01-27T03:36:49.626Z,964.179
2019-01-27T03:38:49.750Z,964.164
2019-01-27T03:40:49.880Z,964.105
2019-01-27T03:42:49.988Z,964.076
2019-01-27T03:44:50.111Z,964.031
2019-01-27T03:46:50.277Z,963.996
2019-01-27T03:48:50.381Z,963.983
2019-01-27T03:50:50.400Z,963.975
2019-01-27T03:52:50.523Z,963.979
2019-01-27T03:54:50.575Z,963.961
2019-01-27T03:56:49.912Z,963.909
2019-01-27T03:58:49.955Z,963.893
2019-01-27T04:00:50.014Z,963.886
2019-01-27T04:02:50.192Z,963.843
2019-01-27T04:04:49.621Z,963.796
2019-01-27T04:06:49.970Z,963.762
2019-01-27T04:08:50.032Z,963.736
2019-01-27T04:10:50.105Z,963.705
2019-01-27T04:12:50.134Z,963.705
2019-01-27T04:14:50.211Z,963.594
2019-01-27T04:16:50.452Z,963.555
2019-01-27T04:18:50.473Z,963.554
2019-01-27T04:20:50.452Z,963.529
2019-01-27T04:22:50.464Z,963.491
2019-01-27T04:24:49.641Z,963.449
2019-01-27T04:26:49.847Z,963.448
2019-01-27T04:28:49.975Z,963.418
2019-01-27T04:30:50.037Z,963.381
2019-01-27T04:32:50.152Z,963.352
2019-01-27T04:34:50.543Z,963.340
2019-01-27T04:36:49.919Z,963.312
2019-01-27T04:38:50.040Z,963.287
2019-01-27T04:40:50.095Z,963.239
2019-01-27T04:42:50.277Z,963.225
2019-01-27T04:44:50.420Z,963.193
2019-01-27T04:46:49.807Z,963.141
2019-01-27T04:48:49.959Z,963.102
2019-01-27T04:50:49.999Z,963.111
2019-01-27T04:52:50.161Z,963.081
2019-01-27T04:54:50.251Z,963.087
2019-01-27T04:56:50.574Z,963.038
2019-01-27T04:58:49.691Z,963.008
2019-01-27T05:00:49.911Z,962.978
2019-01-27T05:02:49.963Z,962.960
2019-01-27T05:04:50.359Z,962.946
2019-01-27T05:06:49.629Z,962.954
2019-01-27T05:08:49.754Z,962.934
2019-01-27T05:10:49.906Z,962.904
2019-01-27T05:12:49.999Z,962.883
2019-01-27T05:14:50.039Z,962.832
2019-01-27T05:16:50.245Z,962.785
2019-01-27T05:18:50.370Z,962.758
2019-01-27T05:20:50.428Z,962.716
2019-01-27T05:22:50.590Z,962.667
2019-01-27T05:24:49.600Z,962.594
2019-01-27T05:26:50.395Z,962.578
2019-01-27T05:28:50.469Z,962.588
2019-01-27T05:30:50.568Z,962.569
2019-01-27T05:32:49.639Z,962.486
2019-01-27T05:34:50.073Z,962.414
2019-01-27T05:36:50.299Z,962.384
2019-01-27T05:38:50.258Z,962.334
2019-01-27T05:40:50.320Z,962.334
2019-01-27T05:42:50.315Z,962.299
2019-01-27T05:44:50.382Z,962.285
2019-01-27T05:46:50.586Z,962.246
2019-01-27T05:48:49.710Z,962.160
2019-01-27T05:50:49.755Z,962.087
2019-01-27T05:52:49.831Z,962.060
2019-01-27T05:54:49.892Z,962.103
2019-01-27T05:56:56.980Z,962.104
2019-01-27T05:58:49.954Z,962.073
2019-01-27T06:00:50.072Z,962.018
2019-01-27T06:02:50.103Z,962.018
2019-01-27T06:04:50.482Z,961.988
2019-01-27T06:06:49.802Z,961.915
2019-01-27T06:08:49.838Z,961.844
2019-01-27T06:10:49.882Z,961.826
2019-01-27T06:12:49.890Z,961.779
2019-01-27T06:14:49.933Z,961.751
2019-01-27T06:16:50.168Z,961.704
2019-01-27T06:18:50.341Z,961.675
2019-01-27T06:20:50.499Z,961.622
2019-01-27T06:22:50.612Z,961.582
2019-01-27T06:24:49.755Z,961.576
2019-01-27T06:26:50.094Z,961.534
2019-01-27T06:28:50.313Z,961.506
2019-01-27T06:30:50.331Z,961.500
2019-01-27T06:32:50.324Z,961.495
2019-01-27T06:34:49.726Z,961.527
2019-01-27T06:36:50.058Z,961.514
2019-01-27T06:38:50.145Z,961.489
2019-01-27T06:40:50.191Z,961.481
2019-01-27T06:42:50.161Z,961.454
2019-01-27T06:44:50.229Z,961.440
2019-01-27T06:46:50.494Z,961.420
2019-01-27T06:48:50.458Z,961.388
2019-01-27T06:50:49.618Z,961.394
2019-01-27T06:52:49.743Z,961.400
2019-01-27T06:54:49.783Z,961.394
2019-01-27T06:56:50.126Z,961.383
2019-01-27T06:58:50.111Z,961.355
2019-01-27T07:00:50.257Z,961.337
2019-01-27T07:02:49.767Z,961.331
2019-01-27T07:04:50.292Z,961.305
2019-01-27T07:06:50.481Z,961.277
2019-01-27T07:08:50.560Z,961.216
2019-01-27T07:10:49.662Z,961.201
2019-01-27T07:12:49.736Z,961.212
2019-01-27T07:14:49.988Z,961.176
2019-01-27T07:16:50.154Z,961.167
2019-01-27T07:18:50.180Z,961.159
2019-01-27T07:20:50.246Z,961.142
2019-01-27T07:22:49.961Z,961.125
2019-01-27T07:24:50.015Z,961.123
2019-01-27T07:26:50.287Z,961.097
2019-01-27T07:28:49.630Z,961.058
2019-01-27T07:30:49.609Z,961.033
2019-01-27T07:32:50.551Z,961.010
2019-01-27T07:34:50.081Z,961.014
2019-01-27T07:36:50.363Z,960.997
2019-01-27T07:38:50.433Z,960.983
2019-01-27T07:40:50.467Z,960.954
2019-01-27T07:42:50.503Z,960.952
2019-01-27T07:44:49.645Z,960.937
2019-01-27T07:46:49.861Z,960.940
2019-01-27T07:48:49.979Z,960.916
2019-01-27T07:50:50.032Z,960.905
2019-01-27T07:52:50.071Z,960.889
2019-01-27T07:54:50.127Z,960.819
2019-01-27T07:56:50.465Z,960.808
2019-01-27T07:58:50.496Z,960.776
2019-01-27T08:00:49.609Z,960.765
2019-01-27T08:02:49.746Z,960.765
2019-01-27T08:04:50.077Z,960.783
2019-01-27T08:06:49.709Z,960.778
2019-01-27T08:08:51.409Z,960.747
2019-01-27T08:10:50.516Z,960.844
2019-01-27T08:12:49.753Z,960.863
2019-01-27T08:14:49.788Z,960.897
2019-01-27T08:16:50.113Z,960.872
2019-01-27T08:18:50.241Z,960.874
2019-01-27T08:20:50.448Z,960.866
2019-01-27T08:22:50.606Z,960.867
2019-01-27T08:24:49.812Z,960.873
2019-01-27T08:26:50.160Z,960.845
2019-01-27T08:28:50.210Z,960.826
2019-01-27T08:30:50.356Z,960.772
2019-01-27T08:32:50.512Z,960.690
2019-01-27T08:34:49.898Z,960.675
2019-01-27T08:36:50.178Z,960.561
2019-01-27T08:38:50.223Z,960.478
2019-01-27T08:40:50.407Z,960.473
2019-01-27T08:42:50.553Z,960.393
2019-01-27T08:44:49.643Z,960.413
2019-01-27T08:46:49.876Z,960.489
2019-01-27T08:48:49.856Z,960.484
2019-01-27T08:50:49.897Z,960.452
2019-01-27T08:52:49.923Z,960.452
2019-01-27T08:54:50.045Z,960.352
2019-01-27T08:56:50.350Z,960.373
2019-01-27T08:58:50.393Z,960.391
2019-01-27T09:00:50.580Z,960.397
2019-01-27T09:02:49.678Z,960.345
2019-01-27T09:04:50.289Z,960.338
2019-01-27T09:06:50.604Z,960.378
2019-01-27T09:08:49.664Z,960.407
2019-01-27T09:10:49.843Z,960.445
2019-01-27T09:12:49.645Z,960.425
2019-01-27T09:14:49.739Z,960.378
2019-01-27T09:16:50.137Z,960.340
2019-01-27T09:18:50.251Z,960.328
2019-01-27T09:20:50.254Z,960.328
2019-01-27T09:22:50.323Z,960.347
2019-01-27T09:24:50.379Z,960.341
2019-01-27T09:26:49.610Z,960.337
2019-01-27T09:28:50.606Z,960.281
2019-01-27T09:30:50.063Z,960.229
2019-01-27T09:32:50.126Z,960.188
2019-01-27T09:34:49.665Z,960.148
2019-01-27T09:36:49.771Z,960.144
2019-01-27T09:38:50.317Z,960.114
2019-01-27T09:40:50.242Z,960.089
2019-01-27T09:42:50.316Z,960.030
2019-01-27T09:44:50.483Z,960.023
2019-01-27T09:46:49.773Z,960.014
2019-01-27T09:48:50.014Z,959.963
2019-01-27T09:50:50.232Z,959.968
2019-01-27T09:52:50.479Z,960.000
2019-01-27T09:54:50.575Z,960.034
2019-01-27T09:56:49.915Z,960.071
2019-01-27T09:58:49.923Z,960.058
2019-01-27T10:00:50.571Z,960.042
2019-01-27T10:02:49.629Z,960.013
2019-01-27T10:04:50.224Z,960.016
2019-01-27T10:06:50.337Z,960.043
2019-01-27T10:08:50.345Z,960.028
2019-01-27T10:10:50.337Z,959.958
2019-01-27T10:12:50.368Z,959.942
2019-01-27T10:14:50.472Z,959.894
2019-01-27T10:16:49.618Z,959.841
2019-01-27T10:18:49.626Z,959.871
2019-01-27T10:20:49.744Z,959.867
2019-01-27T10:22:49.845Z,959.842
2019-01-27T10:24:50.015Z,959.803
2019-01-27T10:26:50.211Z,959.812
2019-01-27T10:28:50.277Z,959.754
2019-01-27T10:30:50.250Z,959.693
2019-01-27T10:32:50.601Z,959.657
2019-01-27T10:34:50.210Z,959.643
2019-01-27T10:36:50.460Z,959.643
2019-01-27T10:38:50.443Z,959.639
2019-01-27T10:40:50.484Z,959.622
2019-01-27T10:42:49.610Z,959.565
2019-01-27T10:44:49.604Z,959.564
2019-01-27T10:46:49.873Z,959.526
2019-01-27T10:48:49.839Z,959.510
2019-01-27T10:50:50.048Z,959.463
2019-01-27T10:52:50.159Z,959.407
2019-01-27T10:54:50.219Z,959.411
2019-01-27T10:56:50.502Z,959.413
2019-01-27T10:58:50.502Z,959.414
2019-01-27T11:00:50.576Z,959.385
2019-01-27T11:02:49.677Z,959.357
2019-01-27T11:04:50.192Z,959.357
2019-01-27T11:06:49.659Z,959.271
2019-01-27T11:08:49.897Z,959.216
2019-01-27T11:10:50.092Z,959.159
2019-01-27T11:12:50.183Z,959.104
2019-01-27T11:14:50.284Z,959.099
2019-01-27T11:16:50.500Z,959.090
2019-01-27T11:18:50.532Z,958.977
2019-01-27T11:20:50.159Z,958.945
2019-01-27T11:22:50.296Z,958.899
2019-01-27T11:24:49.977Z,958.845
2019-01-27T11:26:49.634Z,958.834
2019-01-27T11:28:49.749Z,958.827
2019-01-27T11:30:49.832Z,958.771
2019-01-27T11:32:49.933Z,958.731
2019-01-27T11:34:50.405Z,958.694
2019-01-27T11:36:50.446Z,958.639
2019-01-27T11:38:50.275Z,958.628
2019-01-27T11:40:50.203Z,958.531
2019-01-27T11:42:50.416Z,958.482
2019-01-27T11:44:49.912Z,958.400
2019-01-27T11:46:50.583Z,958.345
2019-01-27T11:48:49.860Z,958.304
2019-01-27T11:50:50.141Z,958.252
2019-01-27T11:52:50.313Z,958.185
2019-01-27T11:54:50.536Z,958.151
2019-01-27T11:56:50.059Z,958.100
2019-01-27T11:58:50.281Z,958.064
2019-01-27T12:00:50.480Z,957.997
2019-01-27T12:02:49.747Z,957.962
2019-01-27T12:04:50.179Z,957.968
2019-01-27T12:06:50.405Z,957.962
2019-01-27T12:08:50.545Z,957.950
2019-01-27T12:10:50.562Z,957.918
2019-01-27T12:12:49.762Z,957.887
2019-01-27T12:14:49.855Z,957.862
2019-01-27T12:16:50.018Z,957.833
2019-01-27T12:18:50.141Z,957.789
2019-01-27T12:20:50.145Z,957.737
2019-01-27T12:22:50.252Z,957.683
2019-01-27T12:24:50.356Z,957.648
2019-01-27T12:26:49.884Z,957.596
2019-01-27T12:28:50.156Z,957.541
2019-01-27T12:30:50.334Z,957.487
2019-01-27T12:32:50.540Z,957.470
2019-01-27T12:34:50.211Z,957.453
2019-01-27T12:36:49.607Z,957.436
2019-01-27T12:38:49.944Z,957.415
2019-01-27T12:40:50.213Z,957.354
2019-01-27T12:42:50.536Z,957.330
2019-01-27T12:44:49.808Z,957.317
2019-01-27T12:46:50.180Z,957.244
2019-01-27T12:48:50.386Z,957.263
2019-01-27T12:50:49.702Z,957.256
2019-01-27T12:52:49.930Z,957.240
2019-01-27T12:54:50.156Z,957.194
2019-01-27T12:56:49.616Z,957.180
2019-01-27T12:58:49.821Z,957.178
2019-01-27T13:00:49.965Z,957.148
2019-01-27T13:02:50.024Z,957.106
2019-01-27T13:04:50.342Z,957.164
2019-01-27T13:06:50.438Z,957.139
2019-01-27T13:08:50.425Z,957.125
2019-01-27T13:10:50.406Z,957.113
2019-01-27T13:12:50.464Z,957.130
2019-01-27T13:14:49.681Z,957.106
2019-01-27T13:16:50.118Z,957.091
2019-01-27T13:18:50.225Z,957.065
2019-01-27T13:20:50.390Z,957.072
2019-01-27T13:22:49.629Z,957.122
2019-01-27T13:24:49.781Z,957.124
2019-01-27T13:26:50.223Z,957.065
2019-01-27T13:28:50.444Z,957.048
2019-01-27T13:30:49.646Z,957.059
2019-01-27T13:32:49.849Z,957.060
2019-01-27T13:34:49.596Z,957.025
2019-01-27T13:36:50.154Z,956.994
2019-01-27T13:38:51.534Z,956.932
2019-01-27T13:40:50.774Z,956.953
2019-01-27T13:42:50.163Z,956.948
2019-01-27T13:44:50.167Z,956.908
2019-01-27T13:46:50.417Z,956.897
2019-01-27T13:48:50.492Z,956.946
2019-01-27T13:50:49.803Z,956.958
2019-01-27T13:52:50.120Z,956.983
2019-01-27T13:54:50.339Z,956.972
2019-01-27T13:56:49.885Z,957.007
2019-01-27T13:58:50.078Z,957.006
2019-01-27T14:00:50.082Z,957.009
2019-01-27T14:02:50.085Z,956.955
2019-01-27T14:04:50.479Z,956.922
2019-01-27T14:06:49.651Z,956.925
2019-01-27T14:08:49.832Z,956.908
2019-01-27T14:10:50.021Z,956.856
2019-01-27T14:12:50.236Z,956.836
2019-01-27T14:14:50.430Z,956.813
2019-01-27T14:16:49.938Z,956.787
2019-01-27T14:18:50.179Z,956.787
2019-01-27T14:20:50.438Z,956.765
2019-01-27T14:22:49.645Z,956.741
2019-01-27T14:24:49.920Z,956.731
2019-01-27T14:26:50.263Z,956.723
2019-01-27T14:28:50.469Z,956.742
2019-01-27T14:30:49.751Z,956.756
2019-01-27T14:32:50.002Z,956.769
2019-01-27T14:34:49.643Z,956.756
2019-01-27T14:36:49.940Z,956.733
2019-01-27T14:38:49.990Z,956.733
2019-01-27T14:40:50.041Z,956.730
2019-01-27T14:42:50.107Z,956.708
2019-01-27T14:44:50.155Z,956.703
2019-01-27T14:46:50.490Z,956.690
2019-01-27T14:48:50.524Z,956.661
2019-01-27T14:50:49.751Z,956.654
2019-01-27T14:52:49.878Z,956.650
2019-01-27T14:54:49.865Z,956.633
2019-01-27T14:56:49.985Z,956.635
2019-01-27T14:58:50.062Z,956.635
2019-01-27T15:00:50.099Z,956.616
2019-01-27T15:02:50.159Z,956.608
2019-01-27T15:04:50.589Z,956.638
2019-01-27T15:06:50.006Z,956.633
2019-01-27T15:08:50.011Z,956.606
2019-01-27T15:10:50.043Z,956.645
2019-01-27T15:12:50.158Z,956.608
2019-01-27T15:14:50.252Z,956.562
2019-01-27T15:16:50.515Z,956.562
2019-01-27T15:18:50.569Z,956.571
2019-01-27T15:20:50.610Z,956.578
2019-01-27T15:22:49.701Z,956.546
2019-01-27T15:24:49.787Z,956.504
2019-01-27T15:26:50.198Z,956.499
2019-01-27T15:28:50.311Z,956.480
2019-01-27T15:30:50.439Z,956.446
2019-01-27T15:32:50.504Z,956.446
2019-01-27T15:34:49.824Z,956.431
2019-01-27T15:36:49.952Z,956.391
2019-01-27T15:38:49.938Z,956.365
2019-01-27T15:40:50.006Z,956.309
2019-01-27T15:42:50.083Z,956.309
2019-01-27T15:44:50.234Z,956.255
2019-01-27T15:46:50.563Z,956.264
2019-01-27T15:48:49.641Z,956.307
2019-01-27T15:50:49.746Z,956.350
2019-01-27T15:52:49.768Z,956.357
2019-01-27T15:54:49.922Z,956.357
2019-01-27T15:56:50.135Z,956.370
2019-01-27T15:58:50.145Z,956.363
2019-01-27T16:00:50.142Z,956.361
2019-01-27T16:02:50.164Z,956.365
2019-01-27T16:04:49.659Z,956.369
2019-01-27T16:06:49.844Z,956.361
2019-01-27T16:08:49.879Z,956.391
2019-01-27T16:10:49.880Z,956.378
2019-01-27T16:12:49.881Z,956.363
2019-01-27T16:14:49.933Z,956.364
2019-01-27T16:16:50.169Z,956.366
2019-01-27T16:18:50.214Z,956.338
2019-01-27T16:20:50.314Z,956.341
2019-01-27T16:22:50.331Z,956.341
2019-01-27T16:24:50.333Z,956.327
2019-01-27T16:26:49.682Z,956.307
2019-01-27T16:28:49.725Z,956.306
2019-01-27T16:30:49.833Z,956.310
2019-01-27T16:32:50.324Z,956.304
2019-01-27T16:34:49.705Z,956.318
2019-01-27T16:36:50.135Z,956.339
2019-01-27T16:38:50.342Z,956.345
2019-01-27T16:40:50.493Z,956.332
2019-01-27T16:42:50.608Z,956.310
2019-01-27T16:44:49.657Z,956.285
2019-01-27T16:46:49.877Z,956.290
2019-01-27T16:48:49.921Z,956.277
2019-01-27T16:50:49.928Z,956.271
2019-01-27T16:52:50.009Z,956.271
2019-01-27T16:54:50.026Z,956.227
2019-01-27T16:56:50.239Z,956.221
2019-01-27T16:58:50.375Z,956.227
2019-01-27T17:00:50.427Z,956.201
2019-01-27T17:02:50.514Z,956.190
2019-01-27T17:04:49.930Z,956.179
2019-01-27T17:06:50.136Z,956.162
2019-01-27T17:08:50.210Z,956.165
2019-01-27T17:10:50.202Z,956.162
2019-01-27T17:12:50.191Z,956.150
2019-01-27T17:14:50.315Z,956.139
2019-01-27T17:16:50.423Z,956.117
2019-01-27T17:18:50.495Z,956.088
2019-01-27T17:20:50.464Z,956.101
2019-01-27T17:22:50.489Z,956.114
2019-01-27T17:24:50.608Z,956.132
2019-01-27T17:26:51.414Z,956.133
2019-01-27T17:28:50.556Z,956.146
2019-01-27T17:30:50.570Z,956.136
2019-01-27T17:32:50.593Z,956.114
2019-01-27T17:34:50.082Z,956.076
2019-01-27T17:36:50.226Z,956.065
2019-01-27T17:38:50.279Z,956.058
2019-01-27T17:40:50.250Z,956.058
2019-01-27T17:42:50.183Z,956.082
2019-01-27T17:44:50.239Z,956.079
2019-01-27T17:46:49.610Z,956.091
2019-01-27T17:48:49.675Z,956.077
2019-01-27T17:50:49.757Z,956.082
2019-01-27T17:52:49.825Z,956.097
2019-01-27T17:54:49.843Z,956.106
2019-01-27T17:56:50.211Z,956.129
2019-01-27T17:58:54.723Z,956.153
2019-01-27T18:00:49.850Z,956.152
2019-01-27T18:02:49.894Z,956.169
2019-01-27T18:04:50.144Z,956.169
2019-01-27T18:06:50.387Z,956.171
2019-01-27T18:08:50.370Z,956.156
2019-01-27T18:10:50.518Z,956.142
2019-01-27T18:12:49.630Z,956.131
2019-01-27T18:14:49.650Z,956.143
2019-01-27T18:16:50.041Z,956.152
2019-01-27T18:18:50.041Z,956.170
2019-01-27T18:20:50.131Z,956.166
2019-01-27T18:22:50.253Z,956.201
2019-01-27T18:24:50.276Z,956.213
2019-01-27T18:26:49.668Z,956.209
2019-01-27T18:28:52.130Z,956.177
2019-01-27T18:30:50.254Z,956.187
2019-01-27T18:32:50.428Z,956.197
2019-01-27T18:34:49.979Z,956.196
2019-01-27T18:36:50.372Z,956.188
2019-01-27T18:38:50.520Z,956.204
2019-01-27T18:40:50.620Z,956.214
2019-01-27T18:42:49.809Z,956.217
2019-01-27T18:44:50.188Z,956.241
2019-01-27T18:46:49.848Z,956.287
2019-01-27T18:48:49.996Z,956.317
2019-01-27T18:50:50.141Z,956.316
2019-01-27T18:52:50.242Z,956.311
2019-01-27T18:54:50.359Z,956.324
2019-01-27T18:56:49.746Z,956.331
2019-01-27T18:58:49.933Z,956.339
2019-01-27T19:00:50.161Z,956.329
2019-01-27T19:02:50.315Z,956.300
2019-01-27T19:04:49.779Z,956.286
2019-01-27T19:06:49.923Z,956.266
2019-01-27T19:08:49.963Z,956.234
2019-01-27T19:10:50.095Z,956.235
2019-01-27T19:12:50.190Z,956.222
2019-01-27T19:14:50.325Z,956.201
2019-01-27T19:16:49.648Z,956.192
2019-01-27T19:18:49.777Z,956.193
2019-01-27T19:20:49.942Z,956.205
2019-01-27T19:22:50.087Z,956.209
2019-01-27T19:24:50.202Z,956.191
2019-01-27T19:26:50.440Z,956.185
2019-01-27T19:28:49.632Z,956.193
2019-01-27T19:30:50.479Z,956.210
2019-01-27T19:32:49.643Z,956.238
2019-01-27T19:34:50.256Z,956.255
2019-01-27T19:36:50.261Z,956.252
2019-01-27T19:38:50.424Z,956.274
2019-01-27T19:40:50.383Z,956.271
2019-01-27T19:42:50.025Z,956.265
2019-01-27T19:44:50.207Z,956.303
2019-01-27T19:46:50.617Z,956.330
2019-01-27T19:48:49.692Z,956.346
2019-01-27T19:50:49.953Z,956.342
2019-01-27T19:52:49.835Z,956.341
2019-01-27T19:54:49.943Z,956.380
2019-01-27T19:56:50.289Z,956.427
2019-01-27T19:58:50.338Z,956.442
2019-01-27T20:00:50.446Z,956.427
2019-01-27T20:02:50.270Z,956.434
2019-01-27T20:04:50.608Z,956.457
2019-01-27T20:06:50.066Z,956.474
2019-01-27T20:08:50.105Z,956.480
2019-01-27T20:10:50.240Z,956.483
2019-01-27T20:12:50.298Z,956.500
2019-01-27T20:14:50.468Z,956.485
2019-01-27T20:16:49.868Z,956.505
2019-01-27T20:18:49.995Z,956.512
2019-01-27T20:20:50.114Z,956.528
2019-01-27T20:22:50.258Z,956.528
2019-01-27T20:24:50.351Z,956.551
2019-01-27T20:26:49.634Z,956.587
2019-01-27T20:28:50.493Z,956.598
2019-01-27T20:30:50.488Z,956.613
2019-01-27T20:32:49.628Z,956.584
2019-01-27T20:34:50.269Z,956.581
2019-01-27T20:36:50.513Z,956.582
2019-01-27T20:38:49.619Z,956.585
2019-01-27T20:40:49.787Z,956.578
2019-01-27T20:42:49.871Z,956.591
2019-01-27T20:44:50.382Z,956.574
2019-01-27T20:46:49.897Z,956.574
2019-01-27T20:48:49.973Z,956.580
2019-01-27T20:50:49.840Z,956.582
2019-01-27T20:52:49.947Z,956.585
2019-01-27T20:54:50.617Z,956.587
2019-01-27T20:56:49.864Z,956.556
2019-01-27T20:58:50.601Z,956.556
2019-01-27T21:00:50.608Z,956.593
2019-01-27T21:02:49.728Z,956.594
2019-01-27T21:04:50.230Z,956.594
2019-01-27T21:06:50.417Z,956.616
2019-01-27T21:08:50.545Z,956.645
2019-01-27T21:10:49.701Z,956.670
2019-01-27T21:12:49.814Z,956.682
2019-01-27T21:14:49.858Z,956.699
2019-01-27T21:16:50.144Z,956.694
2019-01-27T21:18:50.239Z,956.702
2019-01-27T21:20:54.056Z,956.696
2019-01-27T21:22:50.201Z,956.702
2019-01-27T21:24:50.251Z,956.723
2019-01-27T21:26:49.735Z,956.765
2019-01-27T21:28:49.799Z,956.782
2019-01-27T21:30:49.923Z,956.792
2019-01-27T21:32:50.013Z,956.823
2019-01-27T21:34:50.250Z,956.844
2019-01-27T21:36:50.627Z,956.865
2019-01-27T21:38:49.832Z,956.919
2019-01-27T21:40:49.869Z,956.926
2019-01-27T21:42:50.039Z,956.932
2019-01-27T21:44:50.211Z,956.970
2019-01-27T21:46:50.489Z,956.996
2019-01-27T21:48:49.670Z,957.025
2019-01-27T21:50:49.758Z,957.042
2019-01-27T21:52:49.848Z,957.084
2019-01-27T21:54:49.931Z,957.102
2019-01-27T21:56:50.197Z,957.124
2019-01-27T21:58:50.275Z,957.131
2019-01-27T22:00:50.299Z,957.182
2019-01-27T22:02:50.493Z,957.195
2019-01-27T22:04:49.866Z,957.220
2019-01-27T22:06:50.160Z,957.241
2019-01-27T22:08:50.264Z,957.236
2019-01-27T22:10:50.385Z,957.232
2019-01-27T22:12:50.481Z,957.232
2019-01-27T22:14:49.637Z,957.249
2019-01-27T22:16:50.033Z,957.275
2019-01-27T22:18:50.106Z,957.291
2019-01-27T22:20:50.256Z,957.318
2019-01-27T22:22:50.361Z,957.353
2019-01-27T22:24:50.479Z,957.444
2019-01-27T22:26:49.850Z,957.527
2019-01-27T22:28:49.854Z,957.629
2019-01-27T22:30:49.883Z,957.666
2019-01-27T22:32:49.919Z,957.773
2019-01-27T22:34:50.188Z,957.838
2019-01-27T22:36:50.549Z,957.862
2019-01-27T22:38:49.604Z,957.896
2019-01-27T22:40:49.757Z,957.937
2019-01-27T22:42:49.841Z,957.962
2019-01-27T22:44:49.928Z,957.978
2019-01-27T22:46:50.255Z,957.994
2019-01-27T22:48:50.332Z,958.012
2019-01-27T22:50:50.357Z,958.054
2019-01-27T22:52:50.422Z,958.109
2019-01-27T22:54:50.469Z,958.138
2019-01-27T22:56:49.904Z,958.206
2019-01-27T22:58:49.891Z,958.258
2019-01-27T23:00:49.879Z,958.321
2019-01-27T23:02:49.991Z,958.369
2019-01-27T23:04:50.433Z,958.392
2019-01-27T23:06:49.811Z,958.442
2019-01-27T23:08:49.811Z,958.495
2019-01-27T23:10:49.881Z,958.535
2019-01-27T23:12:49.872Z,958.600
2019-01-27T23:14:49.866Z,958.659
2019-01-27T23:16:49.982Z,958.695
2019-01-27T23:18:50.087Z,958.722
2019-01-27T23:20:50.147Z,958.778
2019-01-27T23:22:50.183Z,958.859
2019-01-27T23:24:50.184Z,958.892
2019-01-27T23:26:50.483Z,958.931
2019-01-27T23:28:50.459Z,958.952
2019-01-27T23:30:50.476Z,958.994
2019-01-27T23:32:50.473Z,959.033
2019-01-27T23:34:49.892Z,959.070
2019-01-27T23:36:50.093Z,959.108
2019-01-27T23:38:50.018Z,959.184
2019-01-27T23:40:50.022Z,959.252
2019-01-27T23:42:50.130Z,959.294
2019-01-27T23:44:50.148Z,959.350
2019-01-27T23:46:50.255Z,959.386
2019-01-27T23:48:50.263Z,959.425
2019-01-27T23:50:50.334Z,959.448
2019-01-27T23:52:50.460Z,959.469
2019-01-27T23:54:50.415Z,959.482
2019-01-27T23:56:49.758Z,959.491
2019-01-27T23:58:49.708Z,959.480
